sensor_id;sensor_type;location;lat;lon;timestamp;P1;durP1;ratioP1;P2;durP2;ratioP2
37593;SDS011;23441;50.856;6.076;2022-07-24T00:01:47;0.20;;;0.20;;
37593;SDS011;23441;50.856;6.076;2022-07-24T00:04:13;0.20;;;0.20;;
37593;SDS011;23441;50.856;6.076;2022-07-24T00:06:39;0.20;;;0.20;;
37593;SDS011;23441;50.856;6.076;2022-07-24T00:09:05;0.20;;;0.20;;
37593;SDS011;23441;50.856;6.076;2022-07-24T00:11:32;0.20;;;0.20;;
37593;SDS011;23441;50.856;6.076;2022-07-24T00:13:58;0.17;;;0.17;;
37593;SDS011;23441;50.856;6.076;2022-07-24T00:16:24;0.20;;;0.20;;
37593;SDS011;23441;50.856;6.076;2022-07-24T00:18:50;0.20;;;0.20;;
37593;SDS011;23441;50.856;6.076;2022-07-24T00:21:16;1.27;;;1.27;;
37593;SDS011;23441;50.856;6.076;2022-07-24T00:23:42;0.20;;;0.20;;
37593;SDS011;23441;50.856;6.076;2022-07-24T00:26:09;0.20;;;0.20;;
37593;SDS011;23441;50.856;6.076;2022-07-24T00:28:36;0.20;;;0.20;;
37593;SDS011;23441;50.856;6.076;2022-07-24T00:31:03;0.20;;;0.20;;
37593;SDS011;23441;50.856;6.076;2022-07-24T00:33:30;0.17;;;0.17;;
37593;SDS011;23441;50.856;6.076;2022-07-24T00:35:56;0.20;;;0.20;;
37593;SDS011;23441;50.856;6.076;2022-07-24T00:38:22;0.20;;;0.20;;
37593;SDS011;23441;50.856;6.076;2022-07-24T00:40:48;0.20;;;0.20;;
37593;SDS011;23441;50.856;6.076;2022-07-24T00:43:14;0.20;;;0.20;;
37593;SDS011;23441;50.856;6.076;2022-07-24T00:45:42;0.20;;;0.20;;
37593;SDS011;23441;50.856;6.076;2022-07-24T00:48:09;0.20;;;0.20;;
37593;SDS011;23441;50.856;6.076;2022-07-24T00:50:35;0.20;;;0.20;;
37593;SDS011;23441;50.856;6.076;2022-07-24T00:53:03;0.10;;;0.10;;
37593;SDS011;23441;50.856;6.076;2022-07-24T00:55:30;0.20;;;0.20;;
37593;SDS011;23441;50.856;6.076;2022-07-24T00:57:57;0.20;;;0.20;;
37593;SDS011;23441;50.856;6.076;2022-07-24T01:00:24;0.20;;;0.20;;
37593;SDS011;23441;50.856;6.076;2022-07-24T01:02:50;0.15;;;0.15;;
37593;SDS011;23441;50.856;6.076;2022-07-24T01:05:16;0.20;;;0.20;;
37593;SDS011;23441;50.856;6.076;2022-07-24T01:07:43;0.20;;;0.20;;
37593;SDS011;23441;50.856;6.076;2022-07-24T01:10:09;0.20;;;0.20;;
37593;SDS011;23441;50.856;6.076;2022-07-24T01:12:36;0.20;;;0.20;;
37593;SDS011;23441;50.856;6.076;2022-07-24T01:15:04;0.10;;;0.10;;
37593;SDS011;23441;50.856;6.076;2022-07-24T01:17:34;0.20;;;0.20;;
37593;SDS011;23441;50.856;6.076;2022-07-24T01:20:03;0.20;;;0.20;;
37593;SDS011;23441;50.856;6.076;2022-07-24T01:22:30;0.20;;;0.20;;
37593;SDS011;23441;50.856;6.076;2022-07-24T01:24:56;0.20;;;0.20;;
37593;SDS011;23441;50.856;6.076;2022-07-24T01:27:23;0.10;;;0.10;;
37593;SDS011;23441;50.856;6.076;2022-07-24T01:29:50;0.10;;;0.10;;
37593;SDS011;23441;50.856;6.076;2022-07-24T01:32:17;0.20;;;0.20;;
37593;SDS011;23441;50.856;6.076;2022-07-24T01:34:43;0.20;;;0.20;;
37593;SDS011;23441;50.856;6.076;2022-07-24T01:37:09;0.10;;;0.10;;
37593;SDS011;23441;50.856;6.076;2022-07-24T01:39:36;0.20;;;0.20;;
37593;SDS011;23441;50.856;6.076;2022-07-24T01:42:01;0.20;;;0.20;;
37593;SDS011;23441;50.856;6.076;2022-07-24T01:44:28;0.20;;;0.20;;
37593;SDS011;23441;50.856;6.076;2022-07-24T01:46:54;0.20;;;0.20;;
37593;SDS011;23441;50.856;6.076;2022-07-24T01:49:19;0.10;;;0.10;;
37593;SDS011;23441;50.856;6.076;2022-07-24T01:51:45;0.20;;;0.20;;
37593;SDS011;23441;50.856;6.076;2022-07-24T01:54:11;0.20;;;0.20;;
37593;SDS011;23441;50.856;6.076;2022-07-24T01:56:37;0.20;;;0.20;;
37593;SDS011;23441;50.856;6.076;2022-07-24T01:59:03;0.20;;;0.20;;
37593;SDS011;23441;50.856;6.076;2022-07-24T02:01:29;0.10;;;0.10;;
37593;SDS011;23441;50.856;6.076;2022-07-24T02:03:55;0.17;;;0.17;;
37593;SDS011;23441;50.856;6.076;2022-07-24T02:06:21;0.20;;;0.20;;
37593;SDS011;23441;50.856;6.076;2022-07-24T02:08:47;0.20;;;0.20;;
37593;SDS011;23441;50.856;6.076;2022-07-24T02:11:13;0.20;;;0.20;;
37593;SDS011;23441;50.856;6.076;2022-07-24T02:13:40;0.20;;;0.20;;
37593;SDS011;23441;50.856;6.076;2022-07-24T02:16:06;0.20;;;0.20;;
37593;SDS011;23441;50.856;6.076;2022-07-24T02:18:32;0.20;;;0.20;;
37593;SDS011;23441;50.856;6.076;2022-07-24T02:20:58;0.10;;;0.10;;
37593;SDS011;23441;50.856;6.076;2022-07-24T02:23:24;0.10;;;0.10;;
37593;SDS011;23441;50.856;6.076;2022-07-24T02:25:50;0.20;;;0.20;;
37593;SDS011;23441;50.856;6.076;2022-07-24T02:28:17;0.20;;;0.20;;
37593;SDS011;23441;50.856;6.076;2022-07-24T02:30:43;0.20;;;0.20;;
37593;SDS011;23441;50.856;6.076;2022-07-24T02:33:09;0.20;;;0.20;;
37593;SDS011;23441;50.856;6.076;2022-07-24T02:35:36;0.20;;;0.20;;
37593;SDS011;23441;50.856;6.076;2022-07-24T02:38:03;0.20;;;0.20;;
37593;SDS011;23441;50.856;6.076;2022-07-24T02:40:30;0.10;;;0.10;;
37593;SDS011;23441;50.856;6.076;2022-07-24T02:42:56;0.20;;;0.20;;
37593;SDS011;23441;50.856;6.076;2022-07-24T02:45:23;0.20;;;0.20;;
37593;SDS011;23441;50.856;6.076;2022-07-24T02:47:53;0.20;;;0.20;;
37593;SDS011;23441;50.856;6.076;2022-07-24T02:50:22;0.17;;;0.17;;
37593;SDS011;23441;50.856;6.076;2022-07-24T02:52:50;0.20;;;0.20;;
37593;SDS011;23441;50.856;6.076;2022-07-24T02:55:16;0.20;;;0.20;;
37593;SDS011;23441;50.856;6.076;2022-07-24T02:57:42;0.20;;;0.20;;
37593;SDS011;23441;50.856;6.076;2022-07-24T03:00:10;0.15;;;0.15;;
37593;SDS011;23441;50.856;6.076;2022-07-24T03:02:40;0.13;;;0.13;;
37593;SDS011;23441;50.856;6.076;2022-07-24T03:05:06;0.13;;;0.13;;
37593;SDS011;23441;50.856;6.076;2022-07-24T03:07:33;0.10;;;0.10;;
37593;SDS011;23441;50.856;6.076;2022-07-24T03:09:59;0.20;;;0.20;;
37593;SDS011;23441;50.856;6.076;2022-07-24T03:12:24;0.20;;;0.20;;
37593;SDS011;23441;50.856;6.076;2022-07-24T03:14:50;0.20;;;0.20;;
37593;SDS011;23441;50.856;6.076;2022-07-24T03:17:16;0.20;;;0.20;;
37593;SDS011;23441;50.856;6.076;2022-07-24T03:19:42;0.20;;;0.20;;
37593;SDS011;23441;50.856;6.076;2022-07-24T03:22:08;0.20;;;0.20;;
37593;SDS011;23441;50.856;6.076;2022-07-24T03:24:34;0.10;;;0.10;;
37593;SDS011;23441;50.856;6.076;2022-07-24T03:27:00;0.10;;;0.10;;
37593;SDS011;23441;50.856;6.076;2022-07-24T03:29:26;0.20;;;0.20;;
37593;SDS011;23441;50.856;6.076;2022-07-24T03:31:52;0.20;;;0.20;;
37593;SDS011;23441;50.856;6.076;2022-07-24T03:34:18;0.20;;;0.20;;
37593;SDS011;23441;50.856;6.076;2022-07-24T03:36:44;0.10;;;0.10;;
37593;SDS011;23441;50.856;6.076;2022-07-24T03:39:10;0.10;;;0.10;;
37593;SDS011;23441;50.856;6.076;2022-07-24T03:41:35;0.20;;;0.20;;
37593;SDS011;23441;50.856;6.076;2022-07-24T03:44:01;0.20;;;0.20;;
37593;SDS011;23441;50.856;6.076;2022-07-24T03:46:27;0.10;;;0.10;;
37593;SDS011;23441;50.856;6.076;2022-07-24T03:48:54;0.85;;;0.85;;
37593;SDS011;23441;50.856;6.076;2022-07-24T03:51:20;0.20;;;0.20;;
37593;SDS011;23441;50.856;6.076;2022-07-24T03:53:47;0.30;;;0.30;;
37593;SDS011;23441;50.856;6.076;2022-07-24T03:56:14;1.05;;;0.57;;
37593;SDS011;23441;50.856;6.076;2022-07-24T03:58:41;0.20;;;0.20;;
37593;SDS011;23441;50.856;6.076;2022-07-24T04:01:07;0.20;;;0.20;;
37593;SDS011;23441;50.856;6.076;2022-07-24T04:03:33;0.20;;;0.20;;
37593;SDS011;23441;50.856;6.076;2022-07-24T04:06:00;0.10;;;0.10;;
37593;SDS011;23441;50.856;6.076;2022-07-24T04:08:26;1.95;;;1.85;;
37593;SDS011;23441;50.856;6.076;2022-07-24T04:10:52;0.47;;;0.47;;
37593;SDS011;23441;50.856;6.076;2022-07-24T04:13:25;0.20;;;0.20;;
37593;SDS011;23441;50.856;6.076;2022-07-24T04:15:54;0.10;;;0.10;;
37593;SDS011;23441;50.856;6.076;2022-07-24T04:18:21;0.20;;;0.20;;
37593;SDS011;23441;50.856;6.076;2022-07-24T04:20:47;0.17;;;0.17;;
37593;SDS011;23441;50.856;6.076;2022-07-24T04:23:14;0.20;;;0.20;;
37593;SDS011;23441;50.856;6.076;2022-07-24T04:25:41;0.20;;;0.20;;
37593;SDS011;23441;50.856;6.076;2022-07-24T04:28:06;0.20;;;0.20;;
37593;SDS011;23441;50.856;6.076;2022-07-24T04:30:32;0.17;;;0.17;;
37593;SDS011;23441;50.856;6.076;2022-07-24T04:32:58;0.38;;;0.38;;
37593;SDS011;23441;50.856;6.076;2022-07-24T04:35:24;0.20;;;0.20;;
37593;SDS011;23441;50.856;6.076;2022-07-24T04:37:51;0.10;;;0.10;;
37593;SDS011;23441;50.856;6.076;2022-07-24T04:40:16;0.20;;;0.20;;
37593;SDS011;23441;50.856;6.076;2022-07-24T04:42:43;0.10;;;0.10;;
37593;SDS011;23441;50.856;6.076;2022-07-24T04:45:09;0.20;;;0.20;;
37593;SDS011;23441;50.856;6.076;2022-07-24T04:47:35;0.20;;;0.20;;
37593;SDS011;23441;50.856;6.076;2022-07-24T04:50:03;0.10;;;0.10;;
37593;SDS011;23441;50.856;6.076;2022-07-24T04:52:31;0.10;;;0.10;;
37593;SDS011;23441;50.856;6.076;2022-07-24T04:54:57;0.10;;;0.10;;
37593;SDS011;23441;50.856;6.076;2022-07-24T04:57:22;0.10;;;0.10;;
37593;SDS011;23441;50.856;6.076;2022-07-24T04:59:48;0.10;;;0.10;;
37593;SDS011;23441;50.856;6.076;2022-07-24T05:02:14;0.20;;;0.20;;
37593;SDS011;23441;50.856;6.076;2022-07-24T05:04:40;0.13;;;0.13;;
37593;SDS011;23441;50.856;6.076;2022-07-24T05:07:06;0.10;;;0.10;;
37593;SDS011;23441;50.856;6.076;2022-07-24T05:09:32;0.20;;;0.20;;
37593;SDS011;23441;50.856;6.076;2022-07-24T05:11:58;0.10;;;0.10;;
37593;SDS011;23441;50.856;6.076;2022-07-24T05:14:24;0.20;;;0.20;;
37593;SDS011;23441;50.856;6.076;2022-07-24T05:16:50;0.10;;;0.10;;
37593;SDS011;23441;50.856;6.076;2022-07-24T05:19:16;0.20;;;0.20;;
37593;SDS011;23441;50.856;6.076;2022-07-24T05:21:42;1.95;;;1.85;;
37593;SDS011;23441;50.856;6.076;2022-07-24T05:24:08;0.20;;;0.20;;
37593;SDS011;23441;50.856;6.076;2022-07-24T05:26:34;0.20;;;0.20;;
37593;SDS011;23441;50.856;6.076;2022-07-24T05:29:01;0.20;;;0.20;;
37593;SDS011;23441;50.856;6.076;2022-07-24T05:31:31;0.10;;;0.10;;
37593;SDS011;23441;50.856;6.076;2022-07-24T05:33:57;0.82;;;0.82;;
37593;SDS011;23441;50.856;6.076;2022-07-24T05:36:24;0.20;;;0.20;;
37593;SDS011;23441;50.856;6.076;2022-07-24T05:38:50;0.30;;;0.30;;
37593;SDS011;23441;50.856;6.076;2022-07-24T05:41:16;0.22;;;0.22;;
37593;SDS011;23441;50.856;6.076;2022-07-24T05:43:42;0.20;;;0.20;;
37593;SDS011;23441;50.856;6.076;2022-07-24T05:46:08;0.20;;;0.20;;
37593;SDS011;23441;50.856;6.076;2022-07-24T05:48:34;0.20;;;0.20;;
37593;SDS011;23441;50.856;6.076;2022-07-24T05:51:00;0.57;;;0.57;;
37593;SDS011;23441;50.856;6.076;2022-07-24T05:53:26;0.20;;;0.20;;
37593;SDS011;23441;50.856;6.076;2022-07-24T05:55:52;0.40;;;0.40;;
37593;SDS011;23441;50.856;6.076;2022-07-24T05:58:18;0.10;;;0.10;;
37593;SDS011;23441;50.856;6.076;2022-07-24T06:00:44;0.40;;;0.40;;
37593;SDS011;23441;50.856;6.076;2022-07-24T06:03:11;0.20;;;0.20;;
37593;SDS011;23441;50.856;6.076;2022-07-24T06:05:37;0.35;;;0.35;;
37593;SDS011;23441;50.856;6.076;2022-07-24T06:08:04;0.40;;;0.40;;
37593;SDS011;23441;50.856;6.076;2022-07-24T06:10:30;1.08;;;1.08;;
37593;SDS011;23441;50.856;6.076;2022-07-24T06:12:57;0.47;;;0.47;;
37593;SDS011;23441;50.856;6.076;2022-07-24T06:15:23;0.10;;;0.10;;
37593;SDS011;23441;50.856;6.076;2022-07-24T06:17:49;0.30;;;0.30;;
37593;SDS011;23441;50.856;6.076;2022-07-24T06:20:16;0.98;;;0.75;;
37593;SDS011;23441;50.856;6.076;2022-07-24T06:22:43;9.75;;;8.43;;
37593;SDS011;23441;50.856;6.076;2022-07-24T06:25:10;10.00;;;7.53;;
37593;SDS011;23441;50.856;6.076;2022-07-24T06:27:41;10.30;;;7.40;;
37593;SDS011;23441;50.856;6.076;2022-07-24T06:30:13;9.82;;;7.75;;
37593;SDS011;23441;50.856;6.076;2022-07-24T06:32:44;8.75;;;6.88;;
37593;SDS011;23441;50.856;6.076;2022-07-24T06:35:11;7.85;;;7.05;;
37593;SDS011;23441;50.856;6.076;2022-07-24T06:37:37;8.43;;;6.78;;
37593;SDS011;23441;50.856;6.076;2022-07-24T06:40:03;11.65;;;7.55;;
37593;SDS011;23441;50.856;6.076;2022-07-24T06:42:32;9.80;;;8.07;;
37593;SDS011;23441;50.856;6.076;2022-07-24T06:44:58;10.43;;;8.52;;
37593;SDS011;23441;50.856;6.076;2022-07-24T06:47:24;8.35;;;7.45;;
37593;SDS011;23441;50.856;6.076;2022-07-24T06:49:54;11.32;;;8.20;;
37593;SDS011;23441;50.856;6.076;2022-07-24T06:52:20;12.07;;;8.15;;
37593;SDS011;23441;50.856;6.076;2022-07-24T06:54:47;8.23;;;7.38;;
37593;SDS011;23441;50.856;6.076;2022-07-24T06:57:14;12.02;;;8.07;;
37593;SDS011;23441;50.856;6.076;2022-07-24T06:59:41;8.35;;;7.40;;
37593;SDS011;23441;50.856;6.076;2022-07-24T07:02:07;8.38;;;7.57;;
37593;SDS011;23441;50.856;6.076;2022-07-24T07:04:33;9.93;;;7.18;;
37593;SDS011;23441;50.856;6.076;2022-07-24T07:06:59;10.27;;;8.15;;
37593;SDS011;23441;50.856;6.076;2022-07-24T07:09:25;11.25;;;6.93;;
37593;SDS011;23441;50.856;6.076;2022-07-24T07:11:51;9.18;;;6.97;;
37593;SDS011;23441;50.856;6.076;2022-07-24T07:14:17;7.75;;;6.55;;
37593;SDS011;23441;50.856;6.076;2022-07-24T07:16:44;9.20;;;5.90;;
37593;SDS011;23441;50.856;6.076;2022-07-24T07:19:11;7.53;;;6.30;;
37593;SDS011;23441;50.856;6.076;2022-07-24T07:21:37;9.80;;;5.97;;
37593;SDS011;23441;50.856;6.076;2022-07-24T07:24:03;6.43;;;5.72;;
37593;SDS011;23441;50.856;6.076;2022-07-24T07:26:30;7.70;;;5.90;;
37593;SDS011;23441;50.856;6.076;2022-07-24T07:28:56;7.88;;;5.90;;
37593;SDS011;23441;50.856;6.076;2022-07-24T07:31:22;11.68;;;6.07;;
37593;SDS011;23441;50.856;6.076;2022-07-24T07:33:49;8.35;;;6.15;;
37593;SDS011;23441;50.856;6.076;2022-07-24T07:36:16;7.55;;;5.70;;
37593;SDS011;23441;50.856;6.076;2022-07-24T07:38:42;6.68;;;5.72;;
37593;SDS011;23441;50.856;6.076;2022-07-24T07:41:08;6.72;;;5.63;;
37593;SDS011;23441;50.856;6.076;2022-07-24T07:43:34;9.73;;;6.63;;
37593;SDS011;23441;50.856;6.076;2022-07-24T07:46:00;8.73;;;7.30;;
37593;SDS011;23441;50.856;6.076;2022-07-24T07:48:26;7.07;;;6.38;;
37593;SDS011;23441;50.856;6.076;2022-07-24T07:50:53;9.98;;;6.85;;
37593;SDS011;23441;50.856;6.076;2022-07-24T07:53:19;8.95;;;6.95;;
37593;SDS011;23441;50.856;6.076;2022-07-24T07:55:45;11.57;;;7.95;;
37593;SDS011;23441;50.856;6.076;2022-07-24T07:58:13;7.90;;;6.82;;
37593;SDS011;23441;50.856;6.076;2022-07-24T08:00:40;9.35;;;6.68;;
37593;SDS011;23441;50.856;6.076;2022-07-24T08:03:06;9.02;;;6.80;;
37593;SDS011;23441;50.856;6.076;2022-07-24T08:05:32;8.30;;;6.53;;
37593;SDS011;23441;50.856;6.076;2022-07-24T08:07:58;10.32;;;7.43;;
37593;SDS011;23441;50.856;6.076;2022-07-24T08:10:24;12.20;;;7.57;;
37593;SDS011;23441;50.856;6.076;2022-07-24T08:12:50;9.63;;;7.35;;
37593;SDS011;23441;50.856;6.076;2022-07-24T08:15:16;9.60;;;7.60;;
37593;SDS011;23441;50.856;6.076;2022-07-24T08:17:42;11.05;;;8.15;;
37593;SDS011;23441;50.856;6.076;2022-07-24T08:20:08;0.30;;;0.30;;
37593;SDS011;23441;50.856;6.076;2022-07-24T08:22:35;3.10;;;0.75;;
37593;SDS011;23441;50.856;6.076;2022-07-24T08:25:01;0.15;;;0.15;;
37593;SDS011;23441;50.856;6.076;2022-07-24T08:27:28;0.10;;;0.10;;
37593;SDS011;23441;50.856;6.076;2022-07-24T08:29:54;0.13;;;0.13;;
37593;SDS011;23441;50.856;6.076;2022-07-24T08:32:20;0.10;;;0.10;;
37593;SDS011;23441;50.856;6.076;2022-07-24T08:34:46;12.15;;;7.95;;
37593;SDS011;23441;50.856;6.076;2022-07-24T08:37:12;8.25;;;7.40;;
37593;SDS011;23441;50.856;6.076;2022-07-24T08:39:38;11.35;;;7.97;;
37593;SDS011;23441;50.856;6.076;2022-07-24T08:42:06;10.85;;;8.20;;
37593;SDS011;23441;50.856;6.076;2022-07-24T08:44:33;9.80;;;7.55;;
37593;SDS011;23441;50.856;6.076;2022-07-24T08:46:59;9.45;;;7.50;;
37593;SDS011;23441;50.856;6.076;2022-07-24T08:49:26;11.10;;;7.38;;
37593;SDS011;23441;50.856;6.076;2022-07-24T08:51:56;10.55;;;7.70;;
37593;SDS011;23441;50.856;6.076;2022-07-24T08:54:25;11.13;;;6.97;;
37593;SDS011;23441;50.856;6.076;2022-07-24T08:56:51;8.25;;;6.65;;
37593;SDS011;23441;50.856;6.076;2022-07-24T08:59:21;9.88;;;6.43;;
37593;SDS011;23441;50.856;6.076;2022-07-24T09:01:48;11.05;;;6.50;;
37593;SDS011;23441;50.856;6.076;2022-07-24T09:04:30;9.95;;;6.68;;
37593;SDS011;23441;50.856;6.076;2022-07-24T09:07:08;9.65;;;6.80;;
37593;SDS011;23441;50.856;6.076;2022-07-24T09:10:01;8.95;;;6.60;;
37593;SDS011;23441;50.856;6.076;2022-07-24T09:12:34;8.30;;;5.93;;
37593;SDS011;23441;50.856;6.076;2022-07-24T09:15:14;10.45;;;5.80;;
37593;SDS011;23441;50.856;6.076;2022-07-24T09:17:49;7.60;;;5.90;;
37593;SDS011;23441;50.856;6.076;2022-07-24T09:20:22;9.13;;;6.40;;
37593;SDS011;23441;50.856;6.076;2022-07-24T09:22:52;7.28;;;5.55;;
37593;SDS011;23441;50.856;6.076;2022-07-24T09:25:22;8.30;;;6.05;;
37593;SDS011;23441;50.856;6.076;2022-07-24T09:27:55;10.02;;;5.82;;
37593;SDS011;23441;50.856;6.076;2022-07-24T09:33:13;8.32;;;5.60;;
37593;SDS011;23441;50.856;6.076;2022-07-24T09:38:17;10.23;;;6.38;;
37593;SDS011;23441;50.856;6.076;2022-07-24T09:40:53;7.00;;;5.97;;
37593;SDS011;23441;50.856;6.076;2022-07-24T09:43:25;8.57;;;5.78;;
37593;SDS011;23441;50.856;6.076;2022-07-24T09:48:38;9.40;;;6.28;;
37593;SDS011;23441;50.856;6.076;2022-07-24T09:51:21;8.00;;;6.57;;
37593;SDS011;23441;50.856;6.076;2022-07-24T09:53:53;8.60;;;6.15;;
37593;SDS011;23441;50.856;6.076;2022-07-24T09:56:22;9.25;;;6.55;;
37593;SDS011;23441;50.856;6.076;2022-07-24T09:58:54;9.95;;;6.53;;
37593;SDS011;23441;50.856;6.076;2022-07-24T10:01:22;0.10;;;0.10;;
37593;SDS011;23441;50.856;6.076;2022-07-24T10:03:50;0.00;;;0.00;;
37593;SDS011;23441;50.856;6.076;2022-07-24T10:06:23;0.30;;;0.30;;
37593;SDS011;23441;50.856;6.076;2022-07-24T10:08:51;0.00;;;0.00;;
37593;SDS011;23441;50.856;6.076;2022-07-24T10:11:18;0.93;;;0.93;;
37593;SDS011;23441;50.856;6.076;2022-07-24T10:13:45;1.25;;;0.95;;
37593;SDS011;23441;50.856;6.076;2022-07-24T10:18:48;0.00;;;0.00;;
37593;SDS011;23441;50.856;6.076;2022-07-24T10:21:26;0.30;;;0.30;;
37593;SDS011;23441;50.856;6.076;2022-07-24T10:29:05;0.55;;;0.55;;
37593;SDS011;23441;50.856;6.076;2022-07-24T10:31:34;0.10;;;0.10;;
37593;SDS011;23441;50.856;6.076;2022-07-24T10:34:05;0.20;;;0.20;;
37593;SDS011;23441;50.856;6.076;2022-07-24T10:36:44;4.13;;;3.15;;
37593;SDS011;23441;50.856;6.076;2022-07-24T10:39:28;7.22;;;5.45;;
37593;SDS011;23441;50.856;6.076;2022-07-24T10:42:03;9.88;;;5.68;;
37593;SDS011;23441;50.856;6.076;2022-07-24T10:44:31;5.80;;;5.20;;
37593;SDS011;23441;50.856;6.076;2022-07-24T10:47:08;7.30;;;5.50;;
37593;SDS011;23441;50.856;6.076;2022-07-24T10:49:42;7.45;;;5.38;;
37593;SDS011;23441;50.856;6.076;2022-07-24T10:52:22;7.05;;;4.95;;
37593;SDS011;23441;50.856;6.076;2022-07-24T11:00:35;7.32;;;5.78;;
37593;SDS011;23441;50.856;6.076;2022-07-24T11:03:05;8.93;;;5.43;;
37593;SDS011;23441;50.856;6.076;2022-07-24T11:05:42;7.40;;;5.00;;
37593;SDS011;23441;50.856;6.076;2022-07-24T11:08:29;9.25;;;5.03;;
37593;SDS011;23441;50.856;6.076;2022-07-24T11:11:04;9.60;;;5.35;;
37593;SDS011;23441;50.856;6.076;2022-07-24T11:18:37;7.18;;;4.57;;
37593;SDS011;23441;50.856;6.076;2022-07-24T11:21:06;8.18;;;5.18;;
37593;SDS011;23441;50.856;6.076;2022-07-24T11:23:33;6.93;;;4.90;;
37593;SDS011;23441;50.856;6.076;2022-07-24T11:31:50;0.00;;;0.00;;
37593;SDS011;23441;50.856;6.076;2022-07-24T11:34:19;0.10;;;0.10;;
37593;SDS011;23441;50.856;6.076;2022-07-24T11:36:47;1.88;;;0.80;;
37593;SDS011;23441;50.856;6.076;2022-07-24T11:39:16;0.10;;;0.10;;
37593;SDS011;23441;50.856;6.076;2022-07-24T11:41:50;0.80;;;0.80;;
37593;SDS011;23441;50.856;6.076;2022-07-24T11:44:37;0.55;;;0.43;;
37593;SDS011;23441;50.856;6.076;2022-07-24T11:47:10;0.00;;;0.00;;
37593;SDS011;23441;50.856;6.076;2022-07-24T11:49:39;0.00;;;0.00;;
37593;SDS011;23441;50.856;6.076;2022-07-24T11:52:16;0.08;;;0.08;;
37593;SDS011;23441;50.856;6.076;2022-07-24T11:54:52;0.00;;;0.00;;
37593;SDS011;23441;50.856;6.076;2022-07-24T11:59:54;0.10;;;0.10;;
37593;SDS011;23441;50.856;6.076;2022-07-24T12:02:20;0.63;;;0.63;;
37593;SDS011;23441;50.856;6.076;2022-07-24T12:04:47;0.10;;;0.10;;
37593;SDS011;23441;50.856;6.076;2022-07-24T12:07:16;0.10;;;0.10;;
37593;SDS011;23441;50.856;6.076;2022-07-24T12:14:47;0.20;;;0.20;;
37593;SDS011;23441;50.856;6.076;2022-07-24T12:17:17;0.98;;;0.95;;
37593;SDS011;23441;50.856;6.076;2022-07-24T12:19:53;2.53;;;0.90;;
37593;SDS011;23441;50.856;6.076;2022-07-24T12:22:22;0.30;;;0.30;;
37593;SDS011;23441;50.856;6.076;2022-07-24T12:24:50;0.00;;;0.00;;
37593;SDS011;23441;50.856;6.076;2022-07-24T12:29:59;0.63;;;0.63;;
37593;SDS011;23441;50.856;6.076;2022-07-24T12:32:25;0.10;;;0.10;;
37593;SDS011;23441;50.856;6.076;2022-07-24T12:34:52;0.10;;;0.10;;
37593;SDS011;23441;50.856;6.076;2022-07-24T12:37:18;7.10;;;4.22;;
37593;SDS011;23441;50.856;6.076;2022-07-24T12:39:47;5.32;;;4.75;;
37593;SDS011;23441;50.856;6.076;2022-07-24T12:42:28;5.60;;;4.90;;
37593;SDS011;23441;50.856;6.076;2022-07-24T12:45:04;7.20;;;4.38;;
37593;SDS011;23441;50.856;6.076;2022-07-24T12:48:03;7.55;;;4.93;;
37593;SDS011;23441;50.856;6.076;2022-07-24T12:53:39;10.30;;;5.00;;
37593;SDS011;23441;50.856;6.076;2022-07-24T12:56:14;12.55;;;4.70;;
37593;SDS011;23441;50.856;6.076;2022-07-24T12:58:55;5.22;;;4.50;;
37593;SDS011;23441;50.856;6.076;2022-07-24T13:01:23;5.40;;;4.80;;
37593;SDS011;23441;50.856;6.076;2022-07-24T13:03:53;6.93;;;4.65;;
37593;SDS011;23441;50.856;6.076;2022-07-24T13:06:30;6.82;;;4.80;;
37593;SDS011;23441;50.856;6.076;2022-07-24T13:09:08;6.40;;;4.75;;
37593;SDS011;23441;50.856;6.076;2022-07-24T13:11:36;6.57;;;4.32;;
37593;SDS011;23441;50.856;6.076;2022-07-24T13:14:05;6.97;;;4.75;;
37593;SDS011;23441;50.856;6.076;2022-07-24T13:16:32;6.25;;;4.47;;
37593;SDS011;23441;50.856;6.076;2022-07-24T13:19:02;5.15;;;4.57;;
37593;SDS011;23441;50.856;6.076;2022-07-24T13:21:29;6.00;;;4.72;;
37593;SDS011;23441;50.856;6.076;2022-07-24T13:23:56;7.10;;;4.78;;
37593;SDS011;23441;50.856;6.076;2022-07-24T13:26:22;5.85;;;3.28;;
37593;SDS011;23441;50.856;6.076;2022-07-24T13:28:49;5.93;;;4.03;;
37593;SDS011;23441;50.856;6.076;2022-07-24T13:31:16;8.13;;;4.43;;
37593;SDS011;23441;50.856;6.076;2022-07-24T13:33:47;5.45;;;4.57;;
37593;SDS011;23441;50.856;6.076;2022-07-24T13:36:17;5.47;;;4.63;;
37593;SDS011;23441;50.856;6.076;2022-07-24T13:38:44;5.22;;;4.68;;
37593;SDS011;23441;50.856;6.076;2022-07-24T13:41:10;5.53;;;4.50;;
37593;SDS011;23441;50.856;6.076;2022-07-24T13:43:36;4.85;;;4.35;;
37593;SDS011;23441;50.856;6.076;2022-07-24T13:46:03;5.38;;;4.25;;
37593;SDS011;23441;50.856;6.076;2022-07-24T13:48:30;6.43;;;4.85;;
37593;SDS011;23441;50.856;6.076;2022-07-24T13:50:56;4.85;;;4.40;;
37593;SDS011;23441;50.856;6.076;2022-07-24T13:53:22;5.82;;;4.32;;
37593;SDS011;23441;50.856;6.076;2022-07-24T13:55:48;0.30;;;0.30;;
37593;SDS011;23441;50.856;6.076;2022-07-24T13:58:15;0.00;;;0.00;;
37593;SDS011;23441;50.856;6.076;2022-07-24T14:00:41;0.57;;;0.40;;
37593;SDS011;23441;50.856;6.076;2022-07-24T14:03:07;6.97;;;4.55;;
37593;SDS011;23441;50.856;6.076;2022-07-24T14:05:33;8.82;;;5.10;;
37593;SDS011;23441;50.856;6.076;2022-07-24T14:08:00;7.57;;;4.57;;
37593;SDS011;23441;50.856;6.076;2022-07-24T14:10:26;4.60;;;4.13;;
37593;SDS011;23441;50.856;6.076;2022-07-24T14:12:52;6.47;;;4.60;;
37593;SDS011;23441;50.856;6.076;2022-07-24T14:15:18;0.40;;;0.17;;
37593;SDS011;23441;50.856;6.076;2022-07-24T14:17:44;0.00;;;0.00;;
37593;SDS011;23441;50.856;6.076;2022-07-24T14:20:11;0.00;;;0.00;;
37593;SDS011;23441;50.856;6.076;2022-07-24T14:22:38;3.53;;;0.80;;
37593;SDS011;23441;50.856;6.076;2022-07-24T14:25:06;0.47;;;0.47;;
37593;SDS011;23441;50.856;6.076;2022-07-24T14:27:34;0.00;;;0.00;;
37593;SDS011;23441;50.856;6.076;2022-07-24T14:30:01;0.00;;;0.00;;
37593;SDS011;23441;50.856;6.076;2022-07-24T14:32:28;0.00;;;0.00;;
37593;SDS011;23441;50.856;6.076;2022-07-24T14:34:54;0.00;;;0.00;;
37593;SDS011;23441;50.856;6.076;2022-07-24T14:37:20;0.00;;;0.00;;
37593;SDS011;23441;50.856;6.076;2022-07-24T14:39:46;0.00;;;0.00;;
37593;SDS011;23441;50.856;6.076;2022-07-24T14:42:12;0.00;;;0.00;;
37593;SDS011;23441;50.856;6.076;2022-07-24T14:44:38;0.25;;;0.25;;
37593;SDS011;23441;50.856;6.076;2022-07-24T14:47:04;5.00;;;4.30;;
37593;SDS011;23441;50.856;6.076;2022-07-24T14:49:30;7.57;;;4.80;;
37593;SDS011;23441;50.856;6.076;2022-07-24T14:51:57;6.30;;;4.45;;
37593;SDS011;23441;50.856;6.076;2022-07-24T14:54:24;4.13;;;3.63;;
37593;SDS011;23441;50.856;6.076;2022-07-24T14:56:50;6.60;;;4.47;;
37593;SDS011;23441;50.856;6.076;2022-07-24T14:59:17;7.40;;;4.10;;
37593;SDS011;23441;50.856;6.076;2022-07-24T15:01:43;9.52;;;4.78;;
37593;SDS011;23441;50.856;6.076;2022-07-24T15:04:09;6.30;;;4.85;;
37593;SDS011;23441;50.856;6.076;2022-07-24T15:06:35;6.47;;;4.65;;
37593;SDS011;23441;50.856;6.076;2022-07-24T15:09:03;5.10;;;4.22;;
37593;SDS011;23441;50.856;6.076;2022-07-24T15:11:29;5.72;;;4.45;;
37593;SDS011;23441;50.856;6.076;2022-07-24T15:13:55;5.38;;;4.57;;
37593;SDS011;23441;50.856;6.076;2022-07-24T15:16:21;5.18;;;4.47;;
37593;SDS011;23441;50.856;6.076;2022-07-24T15:18:47;4.95;;;4.32;;
37593;SDS011;23441;50.856;6.076;2022-07-24T15:21:13;6.97;;;4.63;;
37593;SDS011;23441;50.856;6.076;2022-07-24T15:23:39;5.00;;;4.53;;
37593;SDS011;23441;50.856;6.076;2022-07-24T15:26:05;5.90;;;4.53;;
37593;SDS011;23441;50.856;6.076;2022-07-24T15:28:31;6.65;;;4.70;;
37593;SDS011;23441;50.856;6.076;2022-07-24T15:30:57;5.65;;;4.45;;
37593;SDS011;23441;50.856;6.076;2022-07-24T15:33:23;8.40;;;4.53;;
37593;SDS011;23441;50.856;6.076;2022-07-24T15:35:49;5.20;;;4.70;;